sensor_id;sensor_type;location;lat;lon;timestamp;pressure;altitude;pressure_sealevel;temperature;humidity
24788;BME280;12883;52.662;5.196;2022-12-20T00:00:47;101135.59;;;8.56;100.00
24788;BME280;12883;52.662;5.196;2022-12-20T00:03:12;101141.03;;;8.63;100.00
24788;BME280;12883;52.662;5.196;2022-12-20T00:05:40;101129.97;;;8.59;100.00
24788;BME280;12883;52.662;5.196;2022-12-20T00:08:07;101123.59;;;8.68;100.00
24788;BME280;12883;52.662;5.196;2022-12-20T00:10:41;101135.97;;;8.53;100.00
24788;BME280;12883;52.662;5.196;2022-12-20T00:13:07;101144.22;;;8.58;100.00
24788;BME280;12883;52.662;5.196;2022-12-20T00:15:33;101139.09;;;8.57;100.00
24788;BME280;12883;52.662;5.196;2022-12-20T00:17:59;101120.81;;;8.47;100.00
24788;BME280;12883;52.662;5.196;2022-12-20T00:20:25;101081.31;;;8.31;100.00
24788;BME280;12883;52.662;5.196;2022-12-20T00:22:51;101089.34;;;8.38;100.00
24788;BME280;12883;52.662;5.196;2022-12-20T00:25:17;101134.22;;;8.46;100.00
24788;BME280;12883;52.662;5.196;2022-12-20T00:27:43;101111.72;;;8.27;100.00
24788;BME280;12883;52.662;5.196;2022-12-20T00:30:08;101124.09;;;8.49;100.00
24788;BME280;12883;52.662;5.196;2022-12-20T00:32:34;101124.09;;;8.49;100.00
24788;BME280;12883;52.662;5.196;2022-12-20T00:34:59;101140.25;;;8.54;100.00
24788;BME280;12883;52.662;5.196;2022-12-20T00:37:25;101136.53;;;8.63;100.00
24788;BME280;12883;52.662;5.196;2022-12-20T00:39:50;101127.88;;;8.55;100.00
24788;BME280;12883;52.662;5.196;2022-12-20T00:42:15;101120.94;;;8.54;100.00
24788;BME280;12883;52.662;5.196;2022-12-20T00:44:41;101112.47;;;8.58;100.00
24788;BME280;12883;52.662;5.196;2022-12-20T00:47:06;101113.47;;;8.57;100.00
24788;BME280;12883;52.662;5.196;2022-12-20T00:49:31;101110.75;;;8.65;100.00
24788;BME280;12883;52.662;5.196;2022-12-20T00:51:57;101123.97;;;8.65;100.00
24788;BME280;12883;52.662;5.196;2022-12-20T00:54:23;101104.09;;;8.69;100.00
24788;BME280;12883;52.662;5.196;2022-12-20T00:56:48;101099.88;;;8.60;100.00
24788;BME280;12883;52.662;5.196;2022-12-20T00:59:14;101101.66;;;8.68;100.00
24788;BME280;12883;52.662;5.196;2022-12-20T01:01:39;101079.22;;;8.41;100.00
24788;BME280;12883;52.662;5.196;2022-12-20T01:04:04;101086.94;;;8.65;100.00
24788;BME280;12883;52.662;5.196;2022-12-20T01:06:30;101104.16;;;8.61;100.00
24788;BME280;12883;52.662;5.196;2022-12-20T01:08:56;101103.69;;;8.58;100.00
24788;BME280;12883;52.662;5.196;2022-12-20T01:11:25;101111.63;;;8.58;100.00
24788;BME280;12883;52.662;5.196;2022-12-20T01:13:54;101106.72;;;8.55;100.00
24788;BME280;12883;52.662;5.196;2022-12-20T01:16:26;101100.06;;;8.59;100.00
24788;BME280;12883;52.662;5.196;2022-12-20T01:18:52;101103.53;;;8.59;100.00
24788;BME280;12883;52.662;5.196;2022-12-20T01:21:19;101096.66;;;8.50;100.00
24788;BME280;12883;52.662;5.196;2022-12-20T01:23:45;101097.66;;;8.49;100.00
24788;BME280;12883;52.662;5.196;2022-12-20T01:26:17;101098.38;;;8.43;100.00
24788;BME280;12883;52.662;5.196;2022-12-20T01:28:44;101070.44;;;8.26;100.00
24788;BME280;12883;52.662;5.196;2022-12-20T01:31:15;101108.13;;;8.43;100.00
24788;BME280;12883;52.662;5.196;2022-12-20T01:33:41;101091.34;;;8.36;100.00
24788;BME280;12883;52.662;5.196;2022-12-20T01:36:10;101085.16;;;8.43;100.00
24788;BME280;12883;52.662;5.196;2022-12-20T01:38:36;101092.09;;;8.44;100.00
24788;BME280;12883;52.662;5.196;2022-12-20T01:41:02;101076.66;;;8.33;100.00
24788;BME280;12883;52.662;5.196;2022-12-20T01:43:51;101082.00;;;8.48;100.00
24788;BME280;12883;52.662;5.196;2022-12-20T01:46:19;101065.00;;;8.42;100.00
24788;BME280;12883;52.662;5.196;2022-12-20T01:51:35;101093.38;;;8.48;100.00
24788;BME280;12883;52.662;5.196;2022-12-20T01:54:26;101073.84;;;8.49;100.00
24788;BME280;12883;52.662;5.196;2022-12-20T01:56:58;101076.69;;;8.48;100.00
24788;BME280;12883;52.662;5.196;2022-12-20T01:59:26;101059.69;;;8.42;100.00
24788;BME280;12883;52.662;5.196;2022-12-20T02:01:51;101070.13;;;8.44;100.00
24788;BME280;12883;52.662;5.196;2022-12-20T02:04:17;101057.34;;;8.47;100.00
24788;BME280;12883;52.662;5.196;2022-12-20T02:06:42;101055.34;;;8.49;100.00
24788;BME280;12883;52.662;5.196;2022-12-20T02:09:08;101057.72;;;8.44;100.00
24788;BME280;12883;52.662;5.196;2022-12-20T02:14:38;101057.34;;;8.47;100.00
24788;BME280;12883;52.662;5.196;2022-12-20T02:17:19;101055.34;;;8.49;100.00
24788;BME280;12883;52.662;5.196;2022-12-20T02:28:35;101050.72;;;8.66;100.00
24788;BME280;12883;52.662;5.196;2022-12-20T02:31:10;101039.34;;;8.65;100.00
24788;BME280;12883;52.662;5.196;2022-12-20T02:33:39;101021.97;;;8.48;100.00
24788;BME280;12883;52.662;5.196;2022-12-20T02:36:06;101040.22;;;8.58;100.00
24788;BME280;12883;52.662;5.196;2022-12-20T02:38:33;101053.81;;;8.69;100.00
24788;BME280;12883;52.662;5.196;2022-12-20T02:41:18;101046.09;;;8.68;100.00
24788;BME280;12883;52.662;5.196;2022-12-20T02:43:49;101041.06;;;8.58;100.00
24788;BME280;12883;52.662;5.196;2022-12-20T02:46:35;101047.88;;;8.53;100.00
24788;BME280;12883;52.662;5.196;2022-12-20T02:49:06;101038.59;;;8.57;100.00
24788;BME280;12883;52.662;5.196;2022-12-20T02:51:33;101044.88;;;8.56;100.00
24788;BME280;12883;52.662;5.196;2022-12-20T02:53:59;101034.28;;;8.41;100.00
24788;BME280;12883;52.662;5.196;2022-12-20T03:01:40;101048.16;;;8.58;100.00
24788;BME280;12883;52.662;5.196;2022-12-20T03:04:09;100992.94;;;8.26;100.00
24788;BME280;12883;52.662;5.196;2022-12-20T03:06:35;101050.09;;;8.64;100.00
24788;BME280;12883;52.662;5.196;2022-12-20T03:09:01;101050.19;;;8.70;100.00
24788;BME280;12883;52.662;5.196;2022-12-20T03:11:26;101040.34;;;8.64;100.00
24788;BME280;12883;52.662;5.196;2022-12-20T03:13:51;101034.38;;;8.62;100.00
24788;BME280;12883;52.662;5.196;2022-12-20T03:16:17;101027.38;;;8.69;100.00
24788;BME280;12883;52.662;5.196;2022-12-20T03:18:42;101044.63;;;8.65;100.00
24788;BME280;12883;52.662;5.196;2022-12-20T03:21:09;101031.84;;;8.69;100.00
24788;BME280;12883;52.662;5.196;2022-12-20T03:23:34;101031.56;;;8.64;100.00
24788;BME280;12883;52.662;5.196;2022-12-20T03:26:00;101034.41;;;8.77;100.00
24788;BME280;12883;52.662;5.196;2022-12-20T03:28:25;101030.03;;;8.84;100.00
24788;BME280;12883;52.662;5.196;2022-12-20T03:30:50;101031.97;;;8.90;100.00
24788;BME280;12883;52.662;5.196;2022-12-20T03:33:16;101018.97;;;8.95;100.00
24788;BME280;12883;52.662;5.196;2022-12-20T03:35:41;101013.78;;;9.01;100.00
24788;BME280;12883;52.662;5.196;2022-12-20T03:38:07;101008.56;;;9.08;100.00
24788;BME280;12883;52.662;5.196;2022-12-20T03:40:32;101020.06;;;9.15;100.00
24788;BME280;12883;52.662;5.196;2022-12-20T03:42:58;101023.09;;;9.12;100.00
24788;BME280;12883;52.662;5.196;2022-12-20T03:45:23;101013.22;;;9.06;100.00
24788;BME280;12883;52.662;5.196;2022-12-20T03:47:48;101022.53;;;9.16;100.00
24788;BME280;12883;52.662;5.196;2022-12-20T03:50:14;101011.56;;;9.19;100.00
24788;BME280;12883;52.662;5.196;2022-12-20T03:52:39;101011.94;;;9.16;100.00
24788;BME280;12883;52.662;5.196;2022-12-20T03:55:05;101012.66;;;9.10;100.00
24788;BME280;12883;52.662;5.196;2022-12-20T03:57:30;100991.88;;;9.07;100.00
24788;BME280;12883;52.662;5.196;2022-12-20T03:59:56;100994.31;;;9.09;100.00
24788;BME280;12883;52.662;5.196;2022-12-20T04:02:21;100982.03;;;9.01;100.00
24788;BME280;12883;52.662;5.196;2022-12-20T04:04:48;100953.31;;;8.84;100.00
24788;BME280;12883;52.662;5.196;2022-12-20T04:07:13;100987.09;;;9.17;100.00
24788;BME280;12883;52.662;5.196;2022-12-20T04:09:39;101000.59;;;9.22;100.00
24788;BME280;12883;52.662;5.196;2022-12-20T04:12:04;100995.31;;;9.22;100.00
24788;BME280;12883;52.662;5.196;2022-12-20T04:14:29;101000.97;;;9.19;100.00
24788;BME280;12883;52.662;5.196;2022-12-20T04:16:55;100996.06;;;9.16;100.00
24788;BME280;12883;52.662;5.196;2022-12-20T04:19:20;100993.84;;;9.20;100.00
24788;BME280;12883;52.662;5.196;2022-12-20T04:21:46;101007.72;;;9.22;100.00
24788;BME280;12883;52.662;5.196;2022-12-20T04:24:11;101000.72;;;9.14;100.00
24788;BME280;12883;52.662;5.196;2022-12-20T04:26:37;100989.13;;;9.15;100.00
24788;BME280;12883;52.662;5.196;2022-12-20T04:29:02;100979.16;;;9.17;100.00
24788;BME280;12883;52.662;5.196;2022-12-20T04:31:27;100974.88;;;9.02;100.00
24788;BME280;12883;52.662;5.196;2022-12-20T04:33:53;100971.78;;;8.98;100.00
24788;BME280;12883;52.662;5.196;2022-12-20T04:36:18;100979.72;;;9.13;100.00
24788;BME280;12883;52.662;5.196;2022-12-20T04:38:44;100970.94;;;9.12;100.00
24788;BME280;12883;52.662;5.196;2022-12-20T04:41:09;100971.59;;;9.14;100.00
24788;BME280;12883;52.662;5.196;2022-12-20T04:43:49;100951.38;;;8.92;100.00
24788;BME280;12883;52.662;5.196;2022-12-20T04:46:16;100949.44;;;9.01;100.00
24788;BME280;12883;52.662;5.196;2022-12-20T04:48:41;100981.34;;;9.14;100.00
24788;BME280;12883;52.662;5.196;2022-12-20T04:51:07;100964.13;;;9.03;100.00
24788;BME280;12883;52.662;5.196;2022-12-20T04:53:32;100967.84;;;9.09;100.00
24788;BME280;12883;52.662;5.196;2022-12-20T04:56:17;100952.34;;;9.06;100.00
24788;BME280;12883;52.662;5.196;2022-12-20T04:58:43;100971.16;;;9.11;100.00
24788;BME280;12883;52.662;5.196;2022-12-20T05:01:10;100940.00;;;9.13;100.00
24788;BME280;12883;52.662;5.196;2022-12-20T05:03:35;100899.22;;;8.86;100.00
24788;BME280;12883;52.662;5.196;2022-12-20T05:06:01;100962.56;;;9.09;100.00
24788;BME280;12883;52.662;5.196;2022-12-20T05:08:27;100959.38;;;9.13;100.00
24788;BME280;12883;52.662;5.196;2022-12-20T05:10:52;100952.25;;;9.14;100.00
24788;BME280;12883;52.662;5.196;2022-12-20T05:13:18;100951.88;;;9.17;100.00
24788;BME280;12883;52.662;5.196;2022-12-20T05:15:43;100946.94;;;9.14;100.00
24788;BME280;12883;52.662;5.196;2022-12-20T05:18:09;100948.00;;;9.19;100.00
24788;BME280;12883;52.662;5.196;2022-12-20T05:20:35;100954.09;;;9.13;100.00
24788;BME280;12883;52.662;5.196;2022-12-20T05:23:00;100932.22;;;8.90;100.00
24788;BME280;12883;52.662;5.196;2022-12-20T05:25:47;100949.88;;;9.04;100.00
24788;BME280;12883;52.662;5.196;2022-12-20T05:28:51;100950.72;;;9.05;100.00
24788;BME280;12883;52.662;5.196;2022-12-20T05:31:16;100943.84;;;9.10;100.00
24788;BME280;12883;52.662;5.196;2022-12-20T05:33:42;100952.41;;;9.12;100.00
24788;BME280;12883;52.662;5.196;2022-12-20T05:36:07;100942.28;;;9.16;100.00
24788;BME280;12883;52.662;5.196;2022-12-20T05:38:33;100940.72;;;9.21;100.00
24788;BME280;12883;52.662;5.196;2022-12-20T05:40:59;100938.53;;;9.25;100.00
24788;BME280;12883;52.662;5.196;2022-12-20T05:43:24;100938.31;;;9.26;100.00
24788;BME280;12883;52.662;5.196;2022-12-20T05:45:51;100930.94;;;9.22;100.00
24788;BME280;12883;52.662;5.196;2022-12-20T05:48:18;100927.22;;;9.16;100.00
24788;BME280;12883;52.662;5.196;2022-12-20T05:50:45;100930.63;;;9.10;100.00
24788;BME280;12883;52.662;5.196;2022-12-20T05:53:11;100925.72;;;9.07;100.00
24788;BME280;12883;52.662;5.196;2022-12-20T05:55:37;100915.19;;;9.14;100.00
24788;BME280;12883;52.662;5.196;2022-12-20T05:58:05;100919.59;;;9.07;100.00
24788;BME280;12883;52.662;5.196;2022-12-20T06:00:31;100905.44;;;9.00;100.00
24788;BME280;12883;52.662;5.196;2022-12-20T06:02:56;100853.63;;;8.70;100.00
24788;BME280;12883;52.662;5.196;2022-12-20T06:05:21;100914.47;;;9.05;100.00
24788;BME280;12883;52.662;5.196;2022-12-20T06:07:46;100895.13;;;9.05;100.00
24788;BME280;12883;52.662;5.196;2022-12-20T06:10:13;100896.94;;;9.04;100.00
24788;BME280;12883;52.662;5.196;2022-12-20T06:12:38;100917.03;;;9.13;100.00
24788;BME280;12883;52.662;5.196;2022-12-20T06:15:04;100911.34;;;9.16;100.00
24788;BME280;12883;52.662;5.196;2022-12-20T06:17:29;100910.06;;;9.12;100.00
24788;BME280;12883;52.662;5.196;2022-12-20T06:19:54;100904.41;;;9.15;100.00
24788;BME280;12883;52.662;5.196;2022-12-20T06:22:21;100896.28;;;9.17;100.00
24788;BME280;12883;52.662;5.196;2022-12-20T06:24:47;100891.97;;;9.16;100.00
24788;BME280;12883;52.662;5.196;2022-12-20T06:27:12;100893.50;;;9.25;100.00
24788;BME280;12883;52.662;5.196;2022-12-20T06:29:37;100899.25;;;9.28;100.00
24788;BME280;12883;52.662;5.196;2022-12-20T06:32:03;100897.69;;;9.34;100.00
24788;BME280;12883;52.662;5.196;2022-12-20T06:34:30;100902.09;;;9.27;100.00
24788;BME280;12883;52.662;5.196;2022-12-20T06:36:55;100900.44;;;9.26;100.00
24788;BME280;12883;52.662;5.196;2022-12-20T06:39:21;100853.41;;;9.07;100.00
24788;BME280;12883;52.662;5.196;2022-12-20T06:41:46;100906.31;;;9.21;100.00
24788;BME280;12883;52.662;5.196;2022-12-20T06:44:11;100904.41;;;9.15;100.00
24788;BME280;12883;52.662;5.196;2022-12-20T06:46:37;100906.94;;;9.23;100.00
24788;BME280;12883;52.662;5.196;2022-12-20T06:49:02;100911.47;;;9.08;100.00
24788;BME280;12883;52.662;5.196;2022-12-20T06:51:27;100904.31;;;9.09;100.00
24788;BME280;12883;52.662;5.196;2022-12-20T06:53:53;100906.31;;;9.21;100.00
24788;BME280;12883;52.662;5.196;2022-12-20T06:56:18;100905.66;;;9.19;100.00
24788;BME280;12883;52.662;5.196;2022-12-20T06:58:44;100897.63;;;9.27;100.00
24788;BME280;12883;52.662;5.196;2022-12-20T07:01:10;100894.31;;;9.25;100.00
24788;BME280;12883;52.662;5.196;2022-12-20T07:03:36;100894.13;;;9.27;100.00
24788;BME280;12883;52.662;5.196;2022-12-20T07:06:01;100904.41;;;9.36;100.00
24788;BME280;12883;52.662;5.196;2022-12-20T07:08:26;100901.25;;;9.26;100.00
24788;BME280;12883;52.662;5.196;2022-12-20T07:10:51;100896.72;;;9.20;100.00
24788;BME280;12883;52.662;5.196;2022-12-20T07:13:18;100891.66;;;9.25;100.00
24788;BME280;12883;52.662;5.196;2022-12-20T07:15:44;100896.16;;;9.25;100.00
24788;BME280;12883;52.662;5.196;2022-12-20T07:18:09;100891.06;;;9.23;100.00
24788;BME280;12883;52.662;5.196;2022-12-20T07:20:35;100888.00;;;9.05;100.00
24788;BME280;12883;52.662;5.196;2022-12-20T07:23:00;100889.22;;;9.03;100.00
24788;BME280;12883;52.662;5.196;2022-12-20T07:25:26;100907.88;;;9.16;100.00
24788;BME280;12883;52.662;5.196;2022-12-20T07:27:51;100902.38;;;9.17;100.00
24788;BME280;12883;52.662;5.196;2022-12-20T07:30:18;100894.75;;;9.08;100.00
24788;BME280;12883;52.662;5.196;2022-12-20T07:32:44;100901.06;;;9.07;100.00
24788;BME280;12883;52.662;5.196;2022-12-20T07:35:10;100899.25;;;9.07;100.00
24788;BME280;12883;52.662;5.196;2022-12-20T07:37:36;100901.88;;;9.07;100.00
24788;BME280;12883;52.662;5.196;2022-12-20T07:40:02;100890.19;;;9.02;100.00
24788;BME280;12883;52.662;5.196;2022-12-20T07:42:28;100893.72;;;9.09;100.00
24788;BME280;12883;52.662;5.196;2022-12-20T07:44:53;100892.66;;;9.03;100.00
24788;BME280;12883;52.662;5.196;2022-12-20T07:47:19;100901.88;;;9.07;100.00
24788;BME280;12883;52.662;5.196;2022-12-20T07:49:44;100896.28;;;9.17;100.00
24788;BME280;12883;52.662;5.196;2022-12-20T07:52:11;100901.59;;;9.17;100.00
24788;BME280;12883;52.662;5.196;2022-12-20T07:54:55;100887.50;;;9.16;100.00
24788;BME280;12883;52.662;5.196;2022-12-20T07:57:31;100877.84;;;9.09;100.00
24788;BME280;12883;52.662;5.196;2022-12-20T08:00:01;100898.72;;;9.18;100.00
24788;BME280;12883;52.662;5.196;2022-12-20T08:02:35;100893.06;;;9.21;100.00
24788;BME280;12883;52.662;5.196;2022-12-20T08:05:04;100852.47;;;8.93;100.00
24788;BME280;12883;52.662;5.196;2022-12-20T08:07:31;100885.88;;;9.15;100.00
24788;BME280;12883;52.662;5.196;2022-12-20T08:09:57;100893.56;;;9.10;100.00
24788;BME280;12883;52.662;5.196;2022-12-20T08:12:25;100882.03;;;9.18;100.00
24788;BME280;12883;52.662;5.196;2022-12-20T08:14:53;100884.13;;;9.22;100.00
24788;BME280;12883;52.662;5.196;2022-12-20T08:17:20;100890.34;;;9.15;100.00
24788;BME280;12883;52.662;5.196;2022-12-20T08:19:46;100876.09;;;9.16;100.00
24788;BME280;12883;52.662;5.196;2022-12-20T08:22:13;100872.56;;;9.09;100.00
24788;BME280;12883;52.662;5.196;2022-12-20T08:24:38;100880.06;;;9.26;100.00
24788;BME280;12883;52.662;5.196;2022-12-20T08:27:03;100890.31;;;9.29;100.00
24788;BME280;12883;52.662;5.196;2022-12-20T08:29:29;100876.88;;;9.31;100.00
24788;BME280;12883;52.662;5.196;2022-12-20T08:31:54;100884.63;;;9.32;100.00
24788;BME280;12883;52.662;5.196;2022-12-20T08:34:19;100893.31;;;9.26;100.00
24788;BME280;12883;52.662;5.196;2022-12-20T08:36:45;100894.09;;;9.41;100.00
24788;BME280;12883;52.662;5.196;2022-12-20T08:39:10;100891.63;;;9.40;100.00
24788;BME280;12883;52.662;5.196;2022-12-20T08:41:36;100897.75;;;9.40;100.00
24788;BME280;12883;52.662;5.196;2022-12-20T08:44:05;100891.19;;;9.36;100.00
24788;BME280;12883;52.662;5.196;2022-12-20T08:46:30;100904.03;;;9.39;100.00
24788;BME280;12883;52.662;5.196;2022-12-20T08:48:56;100900.00;;;9.43;100.00
24788;BME280;12883;52.662;5.196;2022-12-20T08:51:21;100898.13;;;9.37;100.00
24788;BME280;12883;52.662;5.196;2022-12-20T08:53:46;100898.13;;;9.37;100.00
24788;BME280;12883;52.662;5.196;2022-12-20T08:56:14;100889.22;;;9.45;100.00
24788;BME280;12883;52.662;5.196;2022-12-20T08:58:40;100896.78;;;9.48;100.00
24788;BME280;12883;52.662;5.196;2022-12-20T09:01:07;100891.13;;;9.51;100.00
24788;BME280;12883;52.662;5.196;2022-12-20T09:03:34;100889.91;;;9.53;100.00
24788;BME280;12883;52.662;5.196;2022-12-20T09:06:06;100901.50;;;9.52;100.00
24788;BME280;12883;52.662;5.196;2022-12-20T09:08:33;100890.44;;;9.42;100.00
24788;BME280;12883;52.662;5.196;2022-12-20T09:11:08;100888.78;;;9.41;100.00
24788;BME280;12883;52.662;5.196;2022-12-20T09:13:34;100884.03;;;9.37;100.00
24788;BME280;12883;52.662;5.196;2022-12-20T09:16:01;100852.66;;;9.13;100.00
24788;BME280;12883;52.662;5.196;2022-12-20T09:18:27;100886.69;;;9.37;100.00
24788;BME280;12883;52.662;5.196;2022-12-20T09:20:53;100882.97;;;9.31;100.00
24788;BME280;12883;52.662;5.196;2022-12-20T09:23:18;100870.25;;;9.20;100.00
24788;BME280;12883;52.662;5.196;2022-12-20T09:25:43;100882.03;;;9.18;100.00
24788;BME280;12883;52.662;5.196;2022-12-20T09:28:09;100886.91;;;9.14;100.00
24788;BME280;12883;52.662;5.196;2022-12-20T09:30:35;100881.22;;;9.17;100.00
24788;BME280;12883;52.662;5.196;2022-12-20T09:33:00;100870.13;;;9.07;100.00
24788;BME280;12883;52.662;5.196;2022-12-20T09:35:26;100873.00;;;9.12;100.00
24788;BME280;12883;52.662;5.196;2022-12-20T09:37:51;100876.59;;;9.05;100.00
24788;BME280;12883;52.662;5.196;2022-12-20T09:40:29;100878.41;;;9.04;100.00
24788;BME280;12883;52.662;5.196;2022-12-20T09:42:54;100867.66;;;9.06;100.00
24788;BME280;12883;52.662;5.196;2022-12-20T09:45:26;100968.75;;;9.16;100.00
24788;BME280;12883;52.662;5.196;2022-12-20T09:47:52;100869.88;;;9.23;100.00
24788;BME280;12883;52.662;5.196;2022-12-20T09:50:20;100885.63;;;9.31;100.00
24788;BME280;12883;52.662;5.196;2022-12-20T09:53:13;100884.63;;;9.32;100.00
24788;BME280;12883;52.662;5.196;2022-12-20T09:55:53;100902.97;;;9.34;100.00
24788;BME280;12883;52.662;5.196;2022-12-20T09:58:29;100874.03;;;9.32;100.00
24788;BME280;12883;52.662;5.196;2022-12-20T10:01:13;100882.97;;;9.31;100.00
24788;BME280;12883;52.662;5.196;2022-12-20T10:03:39;100826.19;;;8.92;100.00
24788;BME280;12883;52.662;5.196;2022-12-20T10:06:15;100877.19;;;9.21;100.00
24788;BME280;12883;52.662;5.196;2022-12-20T10:08:45;100866.47;;;9.29;100.00
24788;BME280;12883;52.662;5.196;2022-12-20T10:16:59;100864.38;;;9.46;100.00
24788;BME280;12883;52.662;5.196;2022-12-20T10:19:53;100863.56;;;9.45;100.00
24788;BME280;12883;52.662;5.196;2022-12-20T10:22:27;100862.09;;;9.43;100.00
24788;BME280;12883;52.662;5.196;2022-12-20T10:25:21;100860.59;;;9.54;100.00
24788;BME280;12883;52.662;5.196;2022-12-20T10:27:52;100867.34;;;9.57;100.00
24788;BME280;12883;52.662;5.196;2022-12-20T10:30:21;100857.13;;;9.54;100.00
24788;BME280;12883;52.662;5.196;2022-12-20T10:32:50;100860.44;;;9.62;100.00
24788;BME280;12883;52.662;5.196;2022-12-20T10:38:06;100855.53;;;9.59;100.00
24788;BME280;12883;52.662;5.196;2022-12-20T10:40:44;100865.19;;;9.46;100.00
24788;BME280;12883;52.662;5.196;2022-12-20T10:43:19;100826.34;;;9.32;100.00
24788;BME280;12883;52.662;5.196;2022-12-20T10:45:59;100867.47;;;9.49;100.00
24788;BME280;12883;52.662;5.196;2022-12-20T10:48:32;100866.47;;;9.50;100.00
24788;BME280;12883;52.662;5.196;2022-12-20T10:51:19;100862.94;;;9.43;100.00
24788;BME280;12883;52.662;5.196;2022-12-20T10:53:59;100872.03;;;9.34;100.00
24788;BME280;12883;52.662;5.196;2022-12-20T10:56:27;100861.88;;;9.38;100.00
24788;BME280;12883;52.662;5.196;2022-12-20T10:59:00;100866.03;;;9.47;100.00
24788;BME280;12883;52.662;5.196;2022-12-20T11:01:34;100872.03;;;9.34;100.00
24788;BME280;12883;52.662;5.196;2022-12-20T11:04:03;100866.34;;;9.37;100.00
24788;BME280;12883;52.662;5.196;2022-12-20T11:06:41;100857.81;;;9.42;100.00
24788;BME280;12883;52.662;5.196;2022-12-20T11:11:59;100849.69;;;9.43;100.00
24788;BME280;12883;52.662;5.196;2022-12-20T11:14:25;100854.16;;;9.43;100.00
24788;BME280;12883;52.662;5.196;2022-12-20T11:16:52;100848.69;;;9.44;100.00
24788;BME280;12883;52.662;5.196;2022-12-20T11:19:39;100857.00;;;9.62;100.00
24788;BME280;12883;52.662;5.196;2022-12-20T11:30:38;100847.84;;;9.64;100.00
24788;BME280;12883;52.662;5.196;2022-12-20T11:33:32;100852.16;;;9.72;100.00
24788;BME280;12883;52.662;5.196;2022-12-20T11:38:38;100849.91;;;9.69;100.00
24788;BME280;12883;52.662;5.196;2022-12-20T11:52:38;100839.41;;;9.82;100.00
24788;BME280;12883;52.662;5.196;2022-12-20T11:57:58;100824.06;;;9.77;100.00
24788;BME280;12883;52.662;5.196;2022-12-20T12:00:26;100829.59;;;9.76;100.00
24788;BME280;12883;52.662;5.196;2022-12-20T12:03:10;100828.00;;;9.88;100.00
24788;BME280;12883;52.662;5.196;2022-12-20T12:05:45;100803.09;;;9.76;100.00
24788;BME280;12883;52.662;5.196;2022-12-20T12:08:18;100830.97;;;9.99;100.00
24788;BME280;12883;52.662;5.196;2022-12-20T12:11:05;100830.53;;;9.96;100.00
24788;BME280;12883;52.662;5.196;2022-12-20T12:13:35;100821.69;;;10.10;100.00
24788;BME280;12883;52.662;5.196;2022-12-20T12:16:28;100827.75;;;10.04;100.00
24788;BME280;12883;52.662;5.196;2022-12-20T12:18:59;100818.16;;;10.03;100.00
24788;BME280;12883;52.662;5.196;2022-12-20T12:21:29;100826.97;;;10.10;100.00
24788;BME280;12883;52.662;5.196;2022-12-20T12:24:34;100820.00;;;10.09;100.00
24788;BME280;12883;52.662;5.196;2022-12-20T12:27:00;100827.75;;;10.04;100.00
24788;BME280;12883;52.662;5.196;2022-12-20T12:29:28;100822.53;;;10.17;100.00
24788;BME280;12883;52.662;5.196;2022-12-20T12:37:45;100828.97;;;10.08;100.00
24788;BME280;12883;52.662;5.196;2022-12-20T12:43:47;100825.84;;;9.98;100.00
24788;BME280;12883;52.662;5.196;2022-12-20T12:46:36;100831.16;;;9.98;100.00
24788;BME280;12883;52.662;5.196;2022-12-20T12:49:07;100834.56;;;9.92;100.00
24788;BME280;12883;52.662;5.196;2022-12-20T12:51:36;100836.97;;;9.87;100.00
24788;BME280;12883;52.662;5.196;2022-12-20T12:54:16;100829.69;;;9.95;100.00
24788;BME280;12883;52.662;5.196;2022-12-20T12:56:47;100821.75;;;9.95;100.00
24788;BME280;12883;52.662;5.196;2022-12-20T12:59:20;100830.03;;;9.86;100.00
24788;BME280;12883;52.662;5.196;2022-12-20T13:01:53;100820.66;;;9.83;100.00
24788;BME280;12883;52.662;5.196;2022-12-20T13:11:48;100811.84;;;9.76;100.00
24788;BME280;12883;52.662;5.196;2022-12-20T13:19:36;100835.31;;;9.79;100.00
24788;BME280;12883;52.662;5.196;2022-12-20T13:27:36;100834.88;;;9.76;100.00
24788;BME280;12883;52.662;5.196;2022-12-20T13:40:47;100844.69;;;9.54;100.00
24788;BME280;12883;52.662;5.196;2022-12-20T13:45:55;100833.09;;;9.55;100.00
24788;BME280;12883;52.662;5.196;2022-12-20T13:48:30;100847.72;;;9.52;100.00
24788;BME280;12883;52.662;5.196;2022-12-20T13:51:00;100833.84;;;9.49;100.00
24788;BME280;12883;52.662;5.196;2022-12-20T13:53:27;100845.59;;;9.41;100.00
24788;BME280;12883;52.662;5.196;2022-12-20T13:55:53;100838.91;;;9.45;100.00
24788;BME280;12883;52.662;5.196;2022-12-20T13:58:22;100834.66;;;9.50;100.00
24788;BME280;12883;52.662;5.196;2022-12-20T14:00:49;100853.22;;;9.50;100.00
24788;BME280;12883;52.662;5.196;2022-12-20T14:03:26;100838.59;;;9.54;100.00
24788;BME280;12883;52.662;5.196;2022-12-20T14:05:57;100849.72;;;9.49;100.00
24788;BME280;12883;52.662;5.196;2022-12-20T14:08:30;100841.00;;;9.49;100.00
24788;BME280;12883;52.662;5.196;2022-12-20T14:11:18;100835.06;;;9.47;100.00
24788;BME280;12883;52.662;5.196;2022-12-20T14:13:55;100843.00;;;9.47;100.00
24788;BME280;12883;52.662;5.196;2022-12-20T14:16:24;100833.81;;;9.43;100.00
24788;BME280;12883;52.662;5.196;2022-12-20T14:21:21;100837.28;;;9.44;100.00
24788;BME280;12883;52.662;5.196;2022-12-20T14:23:48;100834.72;;;9.56;100.00
24788;BME280;12883;52.662;5.196;2022-12-20T14:26:17;100816.78;;;9.31;100.00
24788;BME280;12883;52.662;5.196;2022-12-20T14:28:48;100839.53;;;9.47;100.00
24788;BME280;12883;52.662;5.196;2022-12-20T14:33:49;100836.41;;;9.64;100.00
24788;BME280;12883;52.662;5.196;2022-12-20T14:38:43;100850.09;;;9.67;100.00
24788;BME280;12883;52.662;5.196;2022-12-20T14:41:44;100847.63;;;9.66;100.00
24788;BME280;12883;52.662;5.196;2022-12-20T14:44:15;100846.44;;;9.68;100.00